sensor_id;sensor_type;location;lat;lon;timestamp;temperature;humidity
10583;DHT22;33679;51.218;6.786;2022-08-19T00:01:18;25.70;99.90
10583;DHT22;33679;51.218;6.786;2022-08-19T00:03:45;25.60;99.90
10583;DHT22;33679;51.218;6.786;2022-08-19T00:06:12;25.70;99.90
10583;DHT22;33679;51.218;6.786;2022-08-19T00:08:39;25.70;99.90
10583;DHT22;33679;51.218;6.786;2022-08-19T00:11:07;25.60;99.90
10583;DHT22;33679;51.218;6.786;2022-08-19T00:13:34;25.70;99.90
10583;DHT22;33679;51.218;6.786;2022-08-19T00:16:03;25.70;99.90
10583;DHT22;33679;51.218;6.786;2022-08-19T00:18:31;25.70;99.90
10583;DHT22;33679;51.218;6.786;2022-08-19T00:20:58;25.60;99.90
10583;DHT22;33679;51.218;6.786;2022-08-19T00:23:26;25.70;99.90
10583;DHT22;33679;51.218;6.786;2022-08-19T00:25:55;25.60;99.90
10583;DHT22;33679;51.218;6.786;2022-08-19T00:28:22;25.70;99.90
10583;DHT22;33679;51.218;6.786;2022-08-19T00:30:50;25.70;99.90
10583;DHT22;33679;51.218;6.786;2022-08-19T00:33:20;25.70;99.90
10583;DHT22;33679;51.218;6.786;2022-08-19T00:35:47;25.70;99.90
10583;DHT22;33679;51.218;6.786;2022-08-19T00:38:14;25.70;99.90
10583;DHT22;33679;51.218;6.786;2022-08-19T00:40:43;25.70;99.90
10583;DHT22;33679;51.218;6.786;2022-08-19T00:43:12;25.70;99.90
10583;DHT22;33679;51.218;6.786;2022-08-19T00:45:40;25.80;99.90
10583;DHT22;33679;51.218;6.786;2022-08-19T00:48:11;25.80;99.90
10583;DHT22;33679;51.218;6.786;2022-08-19T00:50:43;25.80;99.90
10583;DHT22;33679;51.218;6.786;2022-08-19T00:53:12;25.90;99.90
10583;DHT22;33679;51.218;6.786;2022-08-19T00:55:45;26.00;99.90
10583;DHT22;33679;51.218;6.786;2022-08-19T00:58:15;26.00;99.90
10583;DHT22;33679;51.218;6.786;2022-08-19T01:04:30;26.00;99.90
10583;DHT22;33679;51.218;6.786;2022-08-19T01:07:02;26.00;99.90
10583;DHT22;33679;51.218;6.786;2022-08-19T01:09:30;26.00;99.90
10583;DHT22;33679;51.218;6.786;2022-08-19T01:12:05;26.00;99.90
10583;DHT22;33679;51.218;6.786;2022-08-19T01:14:33;26.00;99.90
10583;DHT22;33679;51.218;6.786;2022-08-19T01:17:01;26.00;99.90
10583;DHT22;33679;51.218;6.786;2022-08-19T01:19:33;26.00;99.90
10583;DHT22;33679;51.218;6.786;2022-08-19T01:22:09;26.00;99.90
10583;DHT22;33679;51.218;6.786;2022-08-19T01:24:39;26.00;99.90
10583;DHT22;33679;51.218;6.786;2022-08-19T01:27:06;26.00;99.90
10583;DHT22;33679;51.218;6.786;2022-08-19T01:29:38;25.90;99.90
10583;DHT22;33679;51.218;6.786;2022-08-19T01:32:17;25.90;99.90
10583;DHT22;33679;51.218;6.786;2022-08-19T01:34:45;25.90;99.90
10583;DHT22;33679;51.218;6.786;2022-08-19T01:37:14;25.90;99.90
10583;DHT22;33679;51.218;6.786;2022-08-19T01:40:11;25.80;99.90
10583;DHT22;33679;51.218;6.786;2022-08-19T01:46:23;25.80;99.90
10583;DHT22;33679;51.218;6.786;2022-08-19T01:49:28;25.70;99.90
10583;DHT22;33679;51.218;6.786;2022-08-19T01:52:31;25.70;99.90
10583;DHT22;33679;51.218;6.786;2022-08-19T01:59:35;25.60;99.90
10583;DHT22;33679;51.218;6.786;2022-08-19T02:03:39;25.50;99.90
10583;DHT22;33679;51.218;6.786;2022-08-19T02:06:08;25.40;99.90
10583;DHT22;33679;51.218;6.786;2022-08-19T02:09:02;25.40;99.90
10583;DHT22;33679;51.218;6.786;2022-08-19T02:15:00;25.30;99.90
10583;DHT22;33679;51.218;6.786;2022-08-19T02:17:36;25.20;99.90
10583;DHT22;33679;51.218;6.786;2022-08-19T02:27:33;25.20;99.90
10583;DHT22;33679;51.218;6.786;2022-08-19T02:44:41;25.40;99.90
10583;DHT22;33679;51.218;6.786;2022-08-19T02:56:08;25.50;99.90
10583;DHT22;33679;51.218;6.786;2022-08-19T03:00:57;25.40;99.90
10583;DHT22;33679;51.218;6.786;2022-08-19T03:03:41;25.40;99.90
10583;DHT22;33679;51.218;6.786;2022-08-19T03:06:15;25.50;99.90
10583;DHT22;33679;51.218;6.786;2022-08-19T03:09:10;25.50;99.90
10583;DHT22;33679;51.218;6.786;2022-08-19T03:12:06;25.50;99.90
10583;DHT22;33679;51.218;6.786;2022-08-19T03:14:55;25.50;99.90
10583;DHT22;33679;51.218;6.786;2022-08-19T03:17:54;25.40;99.90
10583;DHT22;33679;51.218;6.786;2022-08-19T03:24:41;25.30;99.90
10583;DHT22;33679;51.218;6.786;2022-08-19T03:27:26;25.10;99.90
10583;DHT22;33679;51.218;6.786;2022-08-19T03:30:24;25.10;99.90
10583;DHT22;33679;51.218;6.786;2022-08-19T03:32:57;25.00;99.90
10583;DHT22;33679;51.218;6.786;2022-08-19T03:36:08;25.00;99.90
10583;DHT22;33679;51.218;6.786;2022-08-19T03:39:18;25.00;99.90
10583;DHT22;33679;51.218;6.786;2022-08-19T03:42:18;25.00;99.90
10583;DHT22;33679;51.218;6.786;2022-08-19T03:45:17;25.00;99.90
10583;DHT22;33679;51.218;6.786;2022-08-19T03:48:22;25.00;99.90
10583;DHT22;33679;51.218;6.786;2022-08-19T03:51:47;25.00;99.90
10583;DHT22;33679;51.218;6.786;2022-08-19T03:54:25;24.90;99.90
10583;DHT22;33679;51.218;6.786;2022-08-19T03:56:57;24.80;99.90
10583;DHT22;33679;51.218;6.786;2022-08-19T03:59:38;24.90;99.90
10583;DHT22;33679;51.218;6.786;2022-08-19T04:02:27;24.80;99.90
10583;DHT22;33679;51.218;6.786;2022-08-19T04:05:11;24.80;99.90
10583;DHT22;33679;51.218;6.786;2022-08-19T04:07:54;24.70;99.90
10583;DHT22;33679;51.218;6.786;2022-08-19T04:10:58;24.70;99.90
10583;DHT22;33679;51.218;6.786;2022-08-19T04:13:43;24.70;99.90
10583;DHT22;33679;51.218;6.786;2022-08-19T04:16:43;24.70;99.90
10583;DHT22;33679;51.218;6.786;2022-08-19T04:19:20;24.70;99.90
10583;DHT22;33679;51.218;6.786;2022-08-19T04:21:56;24.70;99.90
10583;DHT22;33679;51.218;6.786;2022-08-19T04:27:40;24.60;99.90
10583;DHT22;33679;51.218;6.786;2022-08-19T04:30:27;24.50;99.90
10583;DHT22;33679;51.218;6.786;2022-08-19T04:33:12;24.40;99.90
10583;DHT22;33679;51.218;6.786;2022-08-19T04:35:42;24.40;99.90
10583;DHT22;33679;51.218;6.786;2022-08-19T04:38:26;24.30;99.90
10583;DHT22;33679;51.218;6.786;2022-08-19T04:41:13;24.40;99.90
10583;DHT22;33679;51.218;6.786;2022-08-19T04:44:06;24.40;99.90
10583;DHT22;33679;51.218;6.786;2022-08-19T04:46:44;24.40;99.90
10583;DHT22;33679;51.218;6.786;2022-08-19T04:49:21;24.40;99.90
10583;DHT22;33679;51.218;6.786;2022-08-19T04:52:13;24.50;99.90
10583;DHT22;33679;51.218;6.786;2022-08-19T04:55:22;24.50;99.90
10583;DHT22;33679;51.218;6.786;2022-08-19T04:57:54;24.50;99.90
10583;DHT22;33679;51.218;6.786;2022-08-19T05:00:37;24.60;99.90
10583;DHT22;33679;51.218;6.786;2022-08-19T05:06:54;24.60;99.90
10583;DHT22;33679;51.218;6.786;2022-08-19T05:10:00;24.70;99.90
10583;DHT22;33679;51.218;6.786;2022-08-19T05:13:03;24.70;99.90
10583;DHT22;33679;51.218;6.786;2022-08-19T05:15:43;24.70;99.90
10583;DHT22;33679;51.218;6.786;2022-08-19T05:18:19;24.70;99.90
10583;DHT22;33679;51.218;6.786;2022-08-19T05:21:32;24.70;99.90
10583;DHT22;33679;51.218;6.786;2022-08-19T05:24:23;24.70;99.90
10583;DHT22;33679;51.218;6.786;2022-08-19T05:34:24;24.90;99.90
10583;DHT22;33679;51.218;6.786;2022-08-19T05:51:24;25.20;99.90
10583;DHT22;33679;51.218;6.786;2022-08-19T05:53:51;25.30;99.90
10583;DHT22;33679;51.218;6.786;2022-08-19T05:56:19;25.40;99.90
10583;DHT22;33679;51.218;6.786;2022-08-19T05:58:46;25.40;99.90
10583;DHT22;33679;51.218;6.786;2022-08-19T06:01:16;25.50;99.90
10583;DHT22;33679;51.218;6.786;2022-08-19T06:03:44;25.50;99.90
10583;DHT22;33679;51.218;6.786;2022-08-19T06:06:13;25.40;99.90
10583;DHT22;33679;51.218;6.786;2022-08-19T06:08:44;25.40;99.90
10583;DHT22;33679;51.218;6.786;2022-08-19T06:11:20;25.40;99.90
10583;DHT22;33679;51.218;6.786;2022-08-19T06:13:52;25.40;99.90
10583;DHT22;33679;51.218;6.786;2022-08-19T06:16:20;25.40;99.90
10583;DHT22;33679;51.218;6.786;2022-08-19T06:18:49;25.30;99.90
10583;DHT22;33679;51.218;6.786;2022-08-19T06:21:19;25.20;99.90
10583;DHT22;33679;51.218;6.786;2022-08-19T06:23:51;25.20;99.90
10583;DHT22;33679;51.218;6.786;2022-08-19T06:26:19;25.10;99.90
10583;DHT22;33679;51.218;6.786;2022-08-19T06:28:48;25.00;99.90
10583;DHT22;33679;51.218;6.786;2022-08-19T06:31:17;25.00;99.90
10583;DHT22;33679;51.218;6.786;2022-08-19T06:33:49;25.00;99.90
10583;DHT22;33679;51.218;6.786;2022-08-19T06:36:19;24.90;99.90
10583;DHT22;33679;51.218;6.786;2022-08-19T06:38:47;24.90;99.90
10583;DHT22;33679;51.218;6.786;2022-08-19T06:41:24;24.80;99.90
10583;DHT22;33679;51.218;6.786;2022-08-19T06:43:52;24.70;99.90
10583;DHT22;33679;51.218;6.786;2022-08-19T06:46:20;24.70;99.90
10583;DHT22;33679;51.218;6.786;2022-08-19T06:48:48;24.70;99.90
10583;DHT22;33679;51.218;6.786;2022-08-19T06:51:19;24.70;99.90
10583;DHT22;33679;51.218;6.786;2022-08-19T06:53:47;24.70;99.90
10583;DHT22;33679;51.218;6.786;2022-08-19T06:56:17;24.70;99.90
10583;DHT22;33679;51.218;6.786;2022-08-19T06:58:47;24.80;99.90
10583;DHT22;33679;51.218;6.786;2022-08-19T07:01:16;24.90;99.90
10583;DHT22;33679;51.218;6.786;2022-08-19T07:03:45;25.00;99.90
10583;DHT22;33679;51.218;6.786;2022-08-19T07:06:15;25.10;99.90
10583;DHT22;33679;51.218;6.786;2022-08-19T07:08:44;25.20;99.90
10583;DHT22;33679;51.218;6.786;2022-08-19T07:11:14;25.20;99.90
10583;DHT22;33679;51.218;6.786;2022-08-19T07:13:42;25.30;99.90
10583;DHT22;33679;51.218;6.786;2022-08-19T07:16:15;25.30;99.90
10583;DHT22;33679;51.218;6.786;2022-08-19T07:18:49;25.30;99.90
10583;DHT22;33679;51.218;6.786;2022-08-19T07:21:18;25.30;99.90
10583;DHT22;33679;51.218;6.786;2022-08-19T07:23:49;25.30;99.90
10583;DHT22;33679;51.218;6.786;2022-08-19T07:26:23;25.20;99.90
10583;DHT22;33679;51.218;6.786;2022-08-19T07:28:51;25.20;99.90
10583;DHT22;33679;51.218;6.786;2022-08-19T07:31:22;25.20;99.90
10583;DHT22;33679;51.218;6.786;2022-08-19T07:33:50;25.20;99.90
10583;DHT22;33679;51.218;6.786;2022-08-19T07:36:23;25.20;99.90
10583;DHT22;33679;51.218;6.786;2022-08-19T07:38:51;25.10;99.90
10583;DHT22;33679;51.218;6.786;2022-08-19T07:41:23;25.20;99.90
10583;DHT22;33679;51.218;6.786;2022-08-19T07:43:51;25.10;99.90
10583;DHT22;33679;51.218;6.786;2022-08-19T07:46:20;25.20;99.90
10583;DHT22;33679;51.218;6.786;2022-08-19T07:48:49;25.20;99.90
10583;DHT22;33679;51.218;6.786;2022-08-19T07:51:19;25.20;99.90
10583;DHT22;33679;51.218;6.786;2022-08-19T07:53:47;25.40;99.90
10583;DHT22;33679;51.218;6.786;2022-08-19T07:56:18;25.40;99.90
10583;DHT22;33679;51.218;6.786;2022-08-19T07:58:52;25.70;99.90
10583;DHT22;33679;51.218;6.786;2022-08-19T08:01:24;25.80;99.90
10583;DHT22;33679;51.218;6.786;2022-08-19T08:03:56;26.00;99.90
10583;DHT22;33679;51.218;6.786;2022-08-19T08:06:41;26.10;99.90
10583;DHT22;33679;51.218;6.786;2022-08-19T08:09:30;26.20;99.90
10583;DHT22;33679;51.218;6.786;2022-08-19T08:12:03;26.20;99.90
10583;DHT22;33679;51.218;6.786;2022-08-19T08:14:35;26.20;99.90
10583;DHT22;33679;51.218;6.786;2022-08-19T08:17:09;26.20;99.90
10583;DHT22;33679;51.218;6.786;2022-08-19T08:19:37;26.30;99.90
10583;DHT22;33679;51.218;6.786;2022-08-19T08:22:07;26.40;99.90
10583;DHT22;33679;51.218;6.786;2022-08-19T08:24:55;26.40;99.90
10583;DHT22;33679;51.218;6.786;2022-08-19T08:27:25;26.40;99.90
10583;DHT22;33679;51.218;6.786;2022-08-19T08:29:55;26.40;99.90
10583;DHT22;33679;51.218;6.786;2022-08-19T08:35:38;26.50;99.90
10583;DHT22;33679;51.218;6.786;2022-08-19T08:38:07;26.60;99.90
10583;DHT22;33679;51.218;6.786;2022-08-19T08:40:39;26.60;99.90
10583;DHT22;33679;51.218;6.786;2022-08-19T08:43:20;26.70;99.90
10583;DHT22;33679;51.218;6.786;2022-08-19T08:45:54;26.80;99.90
10583;DHT22;33679;51.218;6.786;2022-08-19T08:48:26;26.80;99.90
10583;DHT22;33679;51.218;6.786;2022-08-19T08:50:59;26.70;99.90
10583;DHT22;33679;51.218;6.786;2022-08-19T08:53:31;26.70;99.90
10583;DHT22;33679;51.218;6.786;2022-08-19T08:56:03;26.80;99.90
10583;DHT22;33679;51.218;6.786;2022-08-19T08:58:39;26.80;99.90
10583;DHT22;33679;51.218;6.786;2022-08-19T09:01:09;26.90;99.90
10583;DHT22;33679;51.218;6.786;2022-08-19T09:03:39;26.80;99.90
10583;DHT22;33679;51.218;6.786;2022-08-19T09:06:26;26.70;99.90
10583;DHT22;33679;51.218;6.786;2022-08-19T09:09:03;26.70;99.90
10583;DHT22;33679;51.218;6.786;2022-08-19T09:11:50;26.70;99.90
10583;DHT22;33679;51.218;6.786;2022-08-19T09:14:32;26.70;99.90
10583;DHT22;33679;51.218;6.786;2022-08-19T09:17:01;26.70;99.90
10583;DHT22;33679;51.218;6.786;2022-08-19T09:19:34;26.70;99.90
10583;DHT22;33679;51.218;6.786;2022-08-19T09:22:04;26.70;99.90
10583;DHT22;33679;51.218;6.786;2022-08-19T09:24:33;26.70;99.90
10583;DHT22;33679;51.218;6.786;2022-08-19T09:27:02;26.70;99.90
10583;DHT22;33679;51.218;6.786;2022-08-19T09:29:29;26.80;99.90
10583;DHT22;33679;51.218;6.786;2022-08-19T09:31:57;26.80;99.90
10583;DHT22;33679;51.218;6.786;2022-08-19T09:34:26;26.90;99.90
10583;DHT22;33679;51.218;6.786;2022-08-19T09:36:55;27.00;99.90
10583;DHT22;33679;51.218;6.786;2022-08-19T09:39:27;27.10;99.90
10583;DHT22;33679;51.218;6.786;2022-08-19T09:42:02;27.10;99.90
10583;DHT22;33679;51.218;6.786;2022-08-19T09:44:37;27.10;99.90
10583;DHT22;33679;51.218;6.786;2022-08-19T09:47:07;27.10;99.90
10583;DHT22;33679;51.218;6.786;2022-08-19T09:49:38;27.00;99.90
10583;DHT22;33679;51.218;6.786;2022-08-19T09:52:10;27.10;99.90
10583;DHT22;33679;51.218;6.786;2022-08-19T09:54:40;27.00;99.90
10583;DHT22;33679;51.218;6.786;2022-08-19T09:57:10;27.10;99.90
10583;DHT22;33679;51.218;6.786;2022-08-19T09:59:46;27.10;99.90
10583;DHT22;33679;51.218;6.786;2022-08-19T10:02:14;27.10;99.90
10583;DHT22;33679;51.218;6.786;2022-08-19T10:04:43;27.20;99.90
10583;DHT22;33679;51.218;6.786;2022-08-19T10:07:29;27.30;99.90
10583;DHT22;33679;51.218;6.786;2022-08-19T10:10:01;27.30;99.90
10583;DHT22;33679;51.218;6.786;2022-08-19T10:12:28;27.50;99.90
10583;DHT22;33679;51.218;6.786;2022-08-19T10:14:56;27.50;99.90
10583;DHT22;33679;51.218;6.786;2022-08-19T10:17:33;27.50;99.90
10583;DHT22;33679;51.218;6.786;2022-08-19T10:20:01;27.50;99.90
10583;DHT22;33679;51.218;6.786;2022-08-19T10:22:30;27.50;99.90
10583;DHT22;33679;51.218;6.786;2022-08-19T10:24:57;27.60;99.90
10583;DHT22;33679;51.218;6.786;2022-08-19T10:27:26;27.60;99.90
10583;DHT22;33679;51.218;6.786;2022-08-19T10:29:53;27.70;99.90
10583;DHT22;33679;51.218;6.786;2022-08-19T10:32:21;27.80;99.90
10583;DHT22;33679;51.218;6.786;2022-08-19T10:34:50;27.80;99.90
10583;DHT22;33679;51.218;6.786;2022-08-19T10:37:18;27.90;99.90
10583;DHT22;33679;51.218;6.786;2022-08-19T10:39:46;28.00;99.90
10583;DHT22;33679;51.218;6.786;2022-08-19T10:42:16;28.00;99.90
10583;DHT22;33679;51.218;6.786;2022-08-19T10:44:46;28.10;99.90
10583;DHT22;33679;51.218;6.786;2022-08-19T10:47:14;28.10;99.90
10583;DHT22;33679;51.218;6.786;2022-08-19T10:49:41;28.10;99.90
10583;DHT22;33679;51.218;6.786;2022-08-19T10:52:35;28.20;99.90
10583;DHT22;33679;51.218;6.786;2022-08-19T10:55:40;28.30;99.90
10583;DHT22;33679;51.218;6.786;2022-08-19T10:58:25;28.40;99.90
10583;DHT22;33679;51.218;6.786;2022-08-19T11:00:55;28.30;99.90
10583;DHT22;33679;51.218;6.786;2022-08-19T11:03:25;28.20;99.90
10583;DHT22;33679;51.218;6.786;2022-08-19T11:05:59;28.10;99.90
10583;DHT22;33679;51.218;6.786;2022-08-19T11:08:27;28.10;99.90
10583;DHT22;33679;51.218;6.786;2022-08-19T11:10:59;28.10;99.90
10583;DHT22;33679;51.218;6.786;2022-08-19T11:13:37;28.10;99.90
10583;DHT22;33679;51.218;6.786;2022-08-19T11:16:09;28.10;99.90
10583;DHT22;33679;51.218;6.786;2022-08-19T11:18:41;28.10;99.90
10583;DHT22;33679;51.218;6.786;2022-08-19T11:21:25;28.10;99.90
10583;DHT22;33679;51.218;6.786;2022-08-19T11:23:55;28.10;99.90
10583;DHT22;33679;51.218;6.786;2022-08-19T11:26:34;28.10;99.90
10583;DHT22;33679;51.218;6.786;2022-08-19T11:29:02;28.10;99.90
10583;DHT22;33679;51.218;6.786;2022-08-19T11:31:33;28.10;99.90
10583;DHT22;33679;51.218;6.786;2022-08-19T11:34:02;28.20;99.90
10583;DHT22;33679;51.218;6.786;2022-08-19T11:36:30;28.20;99.90
10583;DHT22;33679;51.218;6.786;2022-08-19T11:39:04;28.30;99.90
10583;DHT22;33679;51.218;6.786;2022-08-19T11:41:48;28.30;99.90
10583;DHT22;33679;51.218;6.786;2022-08-19T11:44:25;28.50;99.90
10583;DHT22;33679;51.218;6.786;2022-08-19T11:46:56;28.60;99.90
10583;DHT22;33679;51.218;6.786;2022-08-19T11:49:23;28.70;99.90
10583;DHT22;33679;51.218;6.786;2022-08-19T11:51:53;28.70;99.90
10583;DHT22;33679;51.218;6.786;2022-08-19T11:54:20;28.70;99.90
10583;DHT22;33679;51.218;6.786;2022-08-19T11:56:47;28.80;99.90
10583;DHT22;33679;51.218;6.786;2022-08-19T11:59:16;28.90;99.90
10583;DHT22;33679;51.218;6.786;2022-08-19T12:01:45;28.90;99.90
10583;DHT22;33679;51.218;6.786;2022-08-19T12:04:14;29.00;99.90
10583;DHT22;33679;51.218;6.786;2022-08-19T12:06:43;29.00;99.90
10583;DHT22;33679;51.218;6.786;2022-08-19T12:09:11;29.00;99.90
10583;DHT22;33679;51.218;6.786;2022-08-19T12:11:40;28.90;99.90
10583;DHT22;33679;51.218;6.786;2022-08-19T12:14:10;28.90;99.90
10583;DHT22;33679;51.218;6.786;2022-08-19T12:16:40;28.90;99.90
10583;DHT22;33679;51.218;6.786;2022-08-19T12:19:08;28.90;99.90
10583;DHT22;33679;51.218;6.786;2022-08-19T12:21:37;28.90;99.90
10583;DHT22;33679;51.218;6.786;2022-08-19T12:24:06;28.90;99.90
10583;DHT22;33679;51.218;6.786;2022-08-19T12:26:34;28.90;99.90
10583;DHT22;33679;51.218;6.786;2022-08-19T12:29:02;28.90;99.90
10583;DHT22;33679;51.218;6.786;2022-08-19T12:31:30;29.00;99.90
10583;DHT22;33679;51.218;6.786;2022-08-19T12:34:00;29.10;99.90
10583;DHT22;33679;51.218;6.786;2022-08-19T12:36:29;29.20;99.90
10583;DHT22;33679;51.218;6.786;2022-08-19T12:38:59;29.20;99.90
10583;DHT22;33679;51.218;6.786;2022-08-19T12:41:26;29.20;99.90
10583;DHT22;33679;51.218;6.786;2022-08-19T12:43:56;29.20;99.90
10583;DHT22;33679;51.218;6.786;2022-08-19T12:46:24;29.10;99.90
10583;DHT22;33679;51.218;6.786;2022-08-19T12:48:51;29.20;99.90
10583;DHT22;33679;51.218;6.786;2022-08-19T12:51:19;29.10;99.90
10583;DHT22;33679;51.218;6.786;2022-08-19T12:53:47;29.10;99.90
10583;DHT22;33679;51.218;6.786;2022-08-19T12:56:17;29.00;99.90
10583;DHT22;33679;51.218;6.786;2022-08-19T12:58:48;29.00;99.90
10583;DHT22;33679;51.218;6.786;2022-08-19T13:01:17;29.00;99.90
10583;DHT22;33679;51.218;6.786;2022-08-19T13:03:45;29.10;99.90
10583;DHT22;33679;51.218;6.786;2022-08-19T13:06:13;29.00;99.90
10583;DHT22;33679;51.218;6.786;2022-08-19T13:08:43;29.00;99.90
10583;DHT22;33679;51.218;6.786;2022-08-19T13:11:12;29.10;99.90
10583;DHT22;33679;51.218;6.786;2022-08-19T13:13:42;29.10;99.90
10583;DHT22;33679;51.218;6.786;2022-08-19T13:16:10;29.20;99.90
10583;DHT22;33679;51.218;6.786;2022-08-19T13:18:40;29.20;99.90
10583;DHT22;33679;51.218;6.786;2022-08-19T13:21:08;29.20;99.90
10583;DHT22;33679;51.218;6.786;2022-08-19T13:23:37;29.20;99.90
10583;DHT22;33679;51.218;6.786;2022-08-19T13:26:06;29.20;99.90
10583;DHT22;33679;51.218;6.786;2022-08-19T13:28:34;29.20;99.90
10583;DHT22;33679;51.218;6.786;2022-08-19T13:31:18;29.20;99.90
10583;DHT22;33679;51.218;6.786;2022-08-19T13:34:12;29.40;99.30
10583;DHT22;33679;51.218;6.786;2022-08-19T13:36:40;29.40;98.80
10583;DHT22;33679;51.218;6.786;2022-08-19T13:39:08;29.30;98.70
10583;DHT22;33679;51.218;6.786;2022-08-19T13:41:36;29.30;99.60
10583;DHT22;33679;51.218;6.786;2022-08-19T13:44:04;29.30;99.90
10583;DHT22;33679;51.218;6.786;2022-08-19T13:46:33;29.20;99.40
10583;DHT22;33679;51.218;6.786;2022-08-19T13:49:00;29.30;99.50
10583;DHT22;33679;51.218;6.786;2022-08-19T13:51:28;29.30;99.40
10583;DHT22;33679;51.218;6.786;2022-08-19T13:53:55;29.30;99.20
10583;DHT22;33679;51.218;6.786;2022-08-19T13:56:24;29.30;99.10
10583;DHT22;33679;51.218;6.786;2022-08-19T13:58:51;29.30;99.30
10583;DHT22;33679;51.218;6.786;2022-08-19T14:01:22;29.30;98.90
10583;DHT22;33679;51.218;6.786;2022-08-19T14:03:51;29.30;99.00
10583;DHT22;33679;51.218;6.786;2022-08-19T14:06:21;29.30;98.90
10583;DHT22;33679;51.218;6.786;2022-08-19T14:08:49;29.40;98.70
10583;DHT22;33679;51.218;6.786;2022-08-19T14:11:16;29.30;97.90
10583;DHT22;33679;51.218;6.786;2022-08-19T14:13:45;29.30;97.40
10583;DHT22;33679;51.218;6.786;2022-08-19T14:16:13;29.30;97.40
10583;DHT22;33679;51.218;6.786;2022-08-19T14:18:43;29.30;97.60
10583;DHT22;33679;51.218;6.786;2022-08-19T14:21:17;29.40;97.80
10583;DHT22;33679;51.218;6.786;2022-08-19T14:23:46;29.40;97.70
10583;DHT22;33679;51.218;6.786;2022-08-19T14:26:19;29.40;97.20
10583;DHT22;33679;51.218;6.786;2022-08-19T14:28:48;29.40;97.30
10583;DHT22;33679;51.218;6.786;2022-08-19T14:31:18;29.40;97.30
10583;DHT22;33679;51.218;6.786;2022-08-19T14:33:46;29.30;97.30
10583;DHT22;33679;51.218;6.786;2022-08-19T14:36:15;29.40;97.20
10583;DHT22;33679;51.218;6.786;2022-08-19T14:38:43;29.40;97.40
10583;DHT22;33679;51.218;6.786;2022-08-19T14:41:14;29.50;97.30
10583;DHT22;33679;51.218;6.786;2022-08-19T14:43:43;29.50;97.30
10583;DHT22;33679;51.218;6.786;2022-08-19T14:46:16;29.50;97.60
10583;DHT22;33679;51.218;6.786;2022-08-19T14:48:46;29.60;97.60
10583;DHT22;33679;51.218;6.786;2022-08-19T14:51:15;29.70;97.50
10583;DHT22;33679;51.218;6.786;2022-08-19T14:53:43;29.70;97.40
10583;DHT22;33679;51.218;6.786;2022-08-19T14:56:12;29.60;97.60
10583;DHT22;33679;51.218;6.786;2022-08-19T14:58:48;29.50;97.80
10583;DHT22;33679;51.218;6.786;2022-08-19T15:01:19;29.50;98.00
10583;DHT22;33679;51.218;6.786;2022-08-19T15:03:48;29.50;97.70
10583;DHT22;33679;51.218;6.786;2022-08-19T15:06:24;29.50;97.60
10583;DHT22;33679;51.218;6.786;2022-08-19T15:08:52;29.50;98.00
10583;DHT22;33679;51.218;6.786;2022-08-19T15:11:21;29.60;97.40
10583;DHT22;33679;51.218;6.786;2022-08-19T15:13:49;29.60;97.40
10583;DHT22;33679;51.218;6.786;2022-08-19T15:16:19;29.60;97.30
10583;DHT22;33679;51.218;6.786;2022-08-19T15:18:49;29.70;97.30
10583;DHT22;33679;51.218;6.786;2022-08-19T15:21:17;29.70;97.20
10583;DHT22;33679;51.218;6.786;2022-08-19T15:23:49;29.70;98.80
10583;DHT22;33679;51.218;6.786;2022-08-19T15:26:18;29.70;98.30
10583;DHT22;33679;51.218;6.786;2022-08-19T15:28:47;29.70;98.20
10583;DHT22;33679;51.218;6.786;2022-08-19T15:31:18;29.60;98.20
10583;DHT22;33679;51.218;6.786;2022-08-19T15:33:48;29.60;98.70
10583;DHT22;33679;51.218;6.786;2022-08-19T15:36:15;29.50;98.70
10583;DHT22;33679;51.218;6.786;2022-08-19T15:38:43;29.50;98.90
10583;DHT22;33679;51.218;6.786;2022-08-19T15:41:19;29.50;99.40
10583;DHT22;33679;51.218;6.786;2022-08-19T15:43:54;29.60;99.80
10583;DHT22;33679;51.218;6.786;2022-08-19T15:46:26;29.60;99.50
10583;DHT22;33679;51.218;6.786;2022-08-19T15:48:59;29.50;99.50
10583;DHT22;33679;51.218;6.786;2022-08-19T15:51:31;29.50;99.50
10583;DHT22;33679;51.218;6.786;2022-08-19T15:54:00;29.40;99.40
10583;DHT22;33679;51.218;6.786;2022-08-19T15:56:29;29.40;99.80
10583;DHT22;33679;51.218;6.786;2022-08-19T15:59:24;29.40;99.90
10583;DHT22;33679;51.218;6.786;2022-08-19T16:02:09;29.30;99.90
10583;DHT22;33679;51.218;6.786;2022-08-19T16:05:09;29.20;99.90
10583;DHT22;33679;51.218;6.786;2022-08-19T16:07:55;29.20;99.90
10583;DHT22;33679;51.218;6.786;2022-08-19T16:10:23;29.20;99.90
10583;DHT22;33679;51.218;6.786;2022-08-19T16:12:50;29.10;99.90
10583;DHT22;33679;51.218;6.786;2022-08-19T16:15:19;29.20;99.90
10583;DHT22;33679;51.218;6.786;2022-08-19T16:17:48;29.20;99.90
10583;DHT22;33679;51.218;6.786;2022-08-19T16:20:15;29.20;99.90
10583;DHT22;33679;51.218;6.786;2022-08-19T16:22:43;29.30;99.90
10583;DHT22;33679;51.218;6.786;2022-08-19T16:25:11;29.30;99.90
10583;DHT22;33679;51.218;6.786;2022-08-19T16:27:41;29.30;99.90
10583;DHT22;33679;51.218;6.786;2022-08-19T16:30:09;29.30;99.90
10583;DHT22;33679;51.218;6.786;2022-08-19T16:32:42;29.20;99.90
10583;DHT22;33679;51.218;6.786;2022-08-19T16:35:09;29.10;99.90
10583;DHT22;33679;51.218;6.786;2022-08-19T16:37:36;29.00;99.90
10583;DHT22;33679;51.218;6.786;2022-08-19T16:40:06;28.90;99.90
10583;DHT22;33679;51.218;6.786;2022-08-19T16:42:35;28.80;99.90
10583;DHT22;33679;51.218;6.786;2022-08-19T16:45:03;28.80;99.90
10583;DHT22;33679;51.218;6.786;2022-08-19T16:47:33;28.80;99.90
10583;DHT22;33679;51.218;6.786;2022-08-19T16:50:03;28.80;99.90
10583;DHT22;33679;51.218;6.786;2022-08-19T16:52:33;28.70;99.90
10583;DHT22;33679;51.218;6.786;2022-08-19T16:55:01;28.60;99.90
10583;DHT22;33679;51.218;6.786;2022-08-19T16:57:28;28.70;99.90
10583;DHT22;33679;51.218;6.786;2022-08-19T16:59:57;28.60;99.90
10583;DHT22;33679;51.218;6.786;2022-08-19T17:02:24;28.50;99.90
10583;DHT22;33679;51.218;6.786;2022-08-19T17:04:52;28.50;99.90
10583;DHT22;33679;51.218;6.786;2022-08-19T17:07:23;28.40;99.90
10583;DHT22;33679;51.218;6.786;2022-08-19T17:09:51;28.30;99.90
10583;DHT22;33679;51.218;6.786;2022-08-19T17:12:18;28.30;99.90
10583;DHT22;33679;51.218;6.786;2022-08-19T17:14:45;28.30;99.90
10583;DHT22;33679;51.218;6.786;2022-08-19T17:17:12;28.30;99.90
10583;DHT22;33679;51.218;6.786;2022-08-19T17:19:41;28.40;99.90
10583;DHT22;33679;51.218;6.786;2022-08-19T17:22:09;28.40;99.90
10583;DHT22;33679;51.218;6.786;2022-08-19T17:24:39;28.40;99.90
10583;DHT22;33679;51.218;6.786;2022-08-19T17:27:06;28.40;99.90
10583;DHT22;33679;51.218;6.786;2022-08-19T17:29:36;28.40;99.90
10583;DHT22;33679;51.218;6.786;2022-08-19T17:32:05;28.40;99.90
10583;DHT22;33679;51.218;6.786;2022-08-19T17:34:32;28.30;99.90